Tiempo atmosférico en la estación meteorológica de Baztan, Irurita, Navarra (183 m.)



Fecha
DESCASC
Temp. máxima en grados centígrados (hora)
DESCASC
Temp. mínima en grados centígrados (hora)
DESCASC
Temp. media en grados centígrados
DESCASC
Racha de viento máxima en m/sg (hora)
DESCASC
Velocidad máxima media en intervalos de 10 minutos(hora)
DESCASC
Precipitaciones diarias en mm
DESCASC
Precipitaciones de 00:00 a 06:00 en mm
DESCASC
Precipitaciones de 06:00 a 12:00 en mm
DESCASC
Precipitaciones de 12:00 a 18:00 en mm
DESCASC
Precipitaciones de 18:00 a 24:00 en mm
DESCASC
18-01-2018 13.6 (16:20) 1.8 (08:50) 7.7 2.5 (17:40) 1.11 (17:10) 0.2 0.1 0 0 0.1
17-01-2018 12.1 (03:40) 5.8 (23:59) 9 11.94 (04:00) 3.89 (03:50) 12.2 5.6 3.9 2.1 0.6
16-01-2018 11 (16:20) 7.5 (00:00) 9.3 2.78 (03:40) 1.39 (03:40) 4.1 0.1 1.8 0.4 1.8
15-01-2018 11.7 (15:20) 4.3 (03:20) 8 6.94 (16:10) 2.78 (21:30) 0.3 0.2 0 0 0.1
14-01-2018 7 (16:00) 4.4 (00:00) 5.7 3.61 (00:10) 1.67 (00:10) 21.9 4 4.8 6.6 6.5
13-01-2018 11.2 (14:40) 1.5 (00:00) 6.3 11.94 (07:00) 4.72 (07:00) 0.7 0 0 0 0.7
12-01-2018 9.7 (16:10) 2.8 (00:00) 6.2 2.22 (04:10) 0.83 (23:30) 3.9 2.1 1.8 0 0
11-01-2018 5.4 (13:00) 0.9 (00:00) 3.2 3.89 (17:50) 1.67 (18:00) 14.3 0.3 6.3 6.8 0.9
10-01-2018 11.7 (16:30) 1 (00:00) 6.3 10.56 (15:50) 4.72 (14:30) 6 0 0 0 6
09-01-2018 9.3 (15:40) -4.8 (-00:0) 2.3 13.89 (16:00) 6.39 (16:00) 0.2 0 0 0 0.2
08-01-2018 8.3 (15:10) -2.3 (-00:0) 3 2.5 (14:40) 1.39 (14:40) 0.1 0.1 0 0 0
07-01-2018 3 (13:10) 0.2 (00:00) 1.6 1.94 (10:50) 1.11 (10:10) 6.1 5.4 0.7 0 0
06-01-2018 8.1 (00:10) 0.2 (00:00) 4.2 3.33 (05:10) 1.94 (05:50) 65.5 17.8 15.4 21.7 10.6
05-01-2018 15.3 (02:40) 7.8 (00:00) 11.6 11.39 (07:50) 5 (07:30) 10.6 0 0.3 1.9 8.4
04-01-2018 18.9 (14:50) 8.6 (20:10) 13.8 5.28 (14:50) 2.22 (15:20) 0 0 0 0 0
03-01-2018 18.7 (13:00) 9.5 (00:00) 14.1 4.44 (12:30) 1.67 (13:10) 5.3 0 0.3 4.6 0.4
02-01-2018 12.3 (15:50) 7.5 (00:00) 9.9 3.61 (01:10) 1.11 (04:50) 6.7 2.1 3.3 1.2 0.1
01-01-2018 13.9 (14:40) 1.2 (00:00) 7.5 14.17 (15:50) 5.56 (10:50) 10.7 0.1 0 7.6 3
31-12-2017 16.4 (15:20) 2.8 (00:00) 9.6 11.94 (10:20) 6.11 (15:00) 9.9 0 0.1 6.2 3.6
30-12-2017 19.5 (14:40) 3.3 (00:00) 11.4 2.5 (15:00) 1.39 (16:20) 0 0 0 0 0
29-12-2017 15.6 (15:30) 6 (00:00) 10.8 5 (15:30) 1.67 (00:10) 6.7 0.4 6.3 0 0
28-12-2017 10.4 (19:30) 3.7 (00:00) 7 8.89 (19:00) 3.89 (19:00) 32.6 11.8 4.6 9.4 6.8
27-12-2017 9.5 (12:30) 4.1 (00:00) 6.8 14.44 (01:10) 5 (10:20) 36.6 9.5 13 5.6 8.5
26-12-2017 9.9 (16:40) 3.4 (00:00) 6.6 13.33 (22:20) 6.67 (22:20) 4.9 4.2 0.3 0 0.4
25-12-2017 12.8 (16:00) -0.6 (-00:0) 6.1 10.56 (16:30) 5.56 (16:20) 0 0 0 0 0
24-12-2017 15.8 (15:40) 0.1 (00:00) 8 2.5 (16:30) 1.39 (16:40) 0 0 0 0 0

Gráficas

Temp. máximas Temp. mínimas Temp. medias Precipitaciones Rachas de viento máximas Velocidades máximas media en intervalos de 10 minutos

Datos horarios

Fecha y hora oficial Temperatura (ºC) Velocidad del viento (km/h) Dirección del viento Racha (km/h) Dirección de racha Precipitación (mm) Presión (hPa) Tendencia (hPa) Humedad (%)
2018-01-22 23:00:00 11.1 0 Calma 2 Noroeste 0.4 -- -- 95
2018-01-22 22:00:00 11.3 0 Calma -- -- 0.5 -- -- 95
2018-01-22 21:00:00 11.3 0 Calma -- -- 1.1 -- -- 95
2018-01-22 20:00:00 11.5 0 Calma -- -- 0.8 -- -- 94
2018-01-22 19:00:00 11.7 0 Calma 3 Sur 0.7 -- -- 93
2018-01-22 18:00:00 11.9 0 Calma 5 Sudoeste 0.2 -- -- 92
2018-01-22 17:00:00 12.7 0 Calma 6 Nordeste 0 -- -- 86
2018-01-22 16:00:00 12.8 2 Este 8 Sudeste 0 -- -- 80
2018-01-22 15:00:00 13.6 3 Sudoeste 11 Norte 0 -- -- 70
2018-01-22 14:00:00 14.1 3 Sudoeste 8 Oeste 0 -- -- 68
2018-01-22 13:00:00 13 0 Calma 4 Norte 0 -- -- 89
2018-01-22 12:00:00 12.1 0 Calma 4 Noroeste 0 -- -- 95
2018-01-22 11:00:00 11 0 Calma 8 Sur 0 -- -- 96
2018-01-22 10:00:00 10.3 0 Calma 5 Norte 0 -- -- 96
2018-01-22 09:00:00 10.2 0 Calma 4 Sur 0 -- -- 96
2018-01-22 08:00:00 10 0 Calma 2 Noroeste 0 -- -- 96
2018-01-22 07:00:00 10.1 0 Calma 5 Sudeste 0 -- -- 96
2018-01-22 06:00:00 10.2 0 Calma 3 Sudoeste 0 -- -- 96
2018-01-22 05:00:00 10.2 0 Calma 0 Calma 0 -- -- 96
2018-01-22 04:00:00 10.5 0 Calma 4 Sur 0 -- -- 96
2018-01-22 03:00:00 10.5 0 Calma 0 Calma 0 -- -- 96
2018-01-22 02:00:00 10.8 0 Calma 3 Sudoeste 0.1 -- -- 96
2018-01-22 01:00:00 10.7 0 Calma -- -- 0 -- -- 96
2018-01-22 00:00:00 11 0 Calma 3 Nordeste 0.1 -- -- 96
2018-01-21 23:00:00 11.1 0 Calma 3 Norte 0 -- -- 95
2018-01-21 22:00:00 11.4 0 Calma 3 Este 0 -- -- 94
2018-01-21 21:00:00 11.8 0 Calma 8 Sur 0 -- -- 92
2018-01-21 20:00:00 12.2 3 Sudoeste 10 Sudoeste 0 -- -- 87
2018-01-21 19:00:00 12.3 2 Noroeste 14 Oeste 0 -- -- 86
2018-01-21 18:00:00 11.6 0 Calma 8 Noroeste 0 -- -- 93
2018-01-21 17:00:00 11.9 0 Calma 10 Sudeste 0.2 -- -- 95
2018-01-21 16:00:00 12.3 2 Este 5 Este 0.3 -- -- 93
2018-01-21 15:00:00 12.4 5 Sudeste 10 Oeste 0.1 -- -- 92
2018-01-21 14:00:00 12.6 5 Sudoeste 20 Noroeste 0.1 -- -- 87
2018-01-21 13:00:00 13.1 6 Noroeste 25 Norte 0.4 -- -- 82
2018-01-21 12:00:00 12.5 0 Calma 16 Noroeste 1.1 -- -- 89
2018-01-21 11:00:00 12.6 2 Noroeste 17 Noroeste 1.1 -- -- 87
2018-01-21 10:00:00 12.4 0 Calma 11 Oeste 1 -- -- 88
2018-01-21 09:00:00 12.1 3 Sudoeste 14 Sudoeste 1.2 -- -- 91
2018-01-21 08:00:00 11.6 0 Calma 13 Sudoeste 4.4 -- -- 94
2018-01-21 07:00:00 11.8 5 Sudoeste 14 Oeste 3.4 -- -- 93
2018-01-21 06:00:00 12.2 3 Sudoeste 15 Oeste 2.2 -- -- 91
2018-01-21 05:00:00 11.9 3 Sudoeste 22 Norte 2.2 -- -- 92
2018-01-21 04:00:00 11.8 2 Sudoeste 16 Oeste 2 -- -- 93
2018-01-21 03:00:00 11.6 2 Sur 11 Oeste 2.3 -- -- 93
2018-01-21 02:00:00 11.9 0 Calma 20 Noroeste 0.7 -- -- 90
2018-01-21 01:00:00 12.4 6 Oeste 20 Sudoeste 0.9 -- -- 86
2018-01-21 00:00:00 11.8 3 Sudoeste 18 Noroeste 0.8 -- -- 90
2018-01-20 23:00:00 11.2 0 Calma 8 Sudeste 0.6 -- -- 95
2018-01-20 22:00:00 11.3 0 Calma 15 Noroeste 1.1 -- -- 93
2018-01-20 21:00:00 11.2 0 Calma 8 Sudoeste 0.7 -- -- 95
2018-01-20 20:00:00 11 2 Sur 9 Sur 0.8 -- -- 95
2018-01-20 19:00:00 11.1 0 Calma 9 Sudeste 0.8 -- -- 94
2018-01-20 18:00:00 10.9 0 Calma 14 Noroeste 0.1 -- -- 93
2018-01-20 17:00:00 10 0 Calma 10 Este 0.4 -- -- 95
2018-01-20 16:00:00 9.9 0 Calma 8 Sudeste 1.4 -- -- 94
2018-01-20 15:00:00 9.8 5 Este 8 Este 0.7 -- -- 92
2018-01-20 14:00:00 10.4 4 Noroeste 18 Oeste 0.1 -- -- 84
2018-01-20 13:00:00 11.4 5 Sudoeste 17 Sudoeste 0 -- -- 67
2018-01-20 12:00:00 8.8 0 Calma 5 Norte 0 -- -- 92
2018-01-20 11:00:00 8 0 Calma 3 Sudeste 0 -- -- 96
2018-01-20 10:00:00 7 0 Calma 3 Nordeste 0 -- -- 96
2018-01-20 09:00:00 6.7 0 Calma 4 Sur 0 -- -- 96
2018-01-20 08:00:00 6.6 0 Calma 5 Norte 0 -- -- 96
2018-01-20 07:00:00 6.6 0 Calma 4 Norte 0 -- -- 96
2018-01-20 06:00:00 6.6 2 Oeste 6 Sur 0 -- -- 96
2018-01-20 05:00:00 6.9 0 Calma 3 Sudoeste 0 -- -- 96
2018-01-20 04:00:00 6.9 0 Calma 3 Sur 0 -- -- 96
2018-01-20 03:00:00 7.2 0 Calma 4 Noroeste 0.3 -- -- 96
2018-01-20 02:00:00 7.6 0 Calma 4 Noroeste 1.3 -- -- 96
2018-01-20 01:00:00 7.5 0 Calma 7 Sudoeste 0.1 -- -- 95
2018-01-20 00:00:00 7.7 0 Calma 4 Nordeste 0.7 -- -- 95
2018-01-19 23:00:00 7.8 0 Calma 7 Sur 0.4 -- -- 94
2018-01-19 22:00:00 8.1 3 Sudoeste 8 Nordeste 0 -- -- 92
2018-01-19 21:00:00 8.7 5 Sudoeste 21 Noroeste 0.2 -- -- 86
2018-01-19 20:00:00 8.1 0 Calma 13 Sur 0.3 -- -- 92
2018-01-19 19:00:00 8.3 0 Calma 12 Sur 0.8 -- -- 89
2018-01-19 18:00:00 8.9 0 Calma 13 Sur 0 -- -- 80
2018-01-19 17:00:00 9.6 5 Sudoeste 15 Sudoeste 0.1 -- -- 78
2018-01-19 16:00:00 9.7 0 Calma 11 Sudoeste 0.2 -- -- 89
2018-01-19 15:00:00 9.4 5 Sudoeste 15 Noroeste 0.5 -- -- 88
2018-01-19 14:00:00 9.8 2 Sudoeste 9 Norte 0.3 -- -- 94
2018-01-19 13:00:00 10.2 3 Nordeste 5 Nordeste 0 -- -- 93
2018-01-19 12:00:00 9.3 0 Calma 4 Noroeste 0.2 -- -- 96
2018-01-19 11:00:00 8.4 0 Calma 3 Noroeste 0.6 -- -- 96
2018-01-19 10:00:00 7.8 0 Calma 3 Norte 0.1 -- -- 96
2018-01-19 09:00:00 7.3 0 Calma 5 Sudoeste 0 -- -- 96
2018-01-19 08:00:00 7.2 0 Calma 6 Sur 0.5 -- -- 96
2018-01-19 07:00:00 7.3 0 Calma 6 Sudeste 0.1 -- -- 96
2018-01-19 06:00:00 7.4 0 Calma 5 Sur 0 -- -- 96
2018-01-19 05:00:00 7.4 0 Calma 4 Sur 0.3 -- -- 96
2018-01-19 04:00:00 7.3 0 Calma 4 Sur 0.6 -- -- 95
2018-01-19 03:00:00 7.2 0 Calma 4 Noroeste 0.2 -- -- 95
2018-01-19 02:00:00 7.3 0 Calma 3 Norte 0 -- -- 95
2018-01-19 01:00:00 7.2 0 Calma 5 Noroeste 0 -- -- 95
2018-01-19 00:00:00 7.1 0 Calma 6 Noroeste 0.1 -- -- 93
2018-01-18 23:00:00 7 2 Sudoeste 6 Sur 0 -- -- 93
2018-01-18 22:00:00 6.7 0 Calma 7 Noroeste 0 -- -- 93
2018-01-18 21:00:00 6.3 0 Calma 5 Noroeste 0 -- -- 93
2018-01-18 20:00:00 5.6 0 Calma 6 Sur 0 -- -- 92
2018-01-18 19:00:00 6.2 2 Sudoeste 5 Sur 0 -- -- 87
2018-01-18 18:00:00 8.2 3 Sudeste 9 Sudeste 0 -- -- 80
2018-01-18 17:00:00 11.1 4 Sur 6 Sur 0 -- -- 71
2018-01-18 16:00:00 12.8 3 Noroeste 5 Noroeste 0 -- -- 63
2018-01-18 15:00:00 12.1 2 Este 5 Este 0 -- -- 63
2018-01-18 14:00:00 10 0 Calma 5 Sudeste 0 -- -- 73
2018-01-18 13:00:00 6.3 0 Calma 6 Sudeste 0 -- -- 92
2018-01-18 12:00:00 3.9 0 Calma 5 Sudoeste 0 -- -- 97
2018-01-18 11:00:00 2.6 0 Calma 5 Sudeste 0 -- -- 97
2018-01-18 10:00:00 2.3 3 Sudeste 6 Sudeste 0 -- -- 97
2018-01-18 09:00:00 2.3 0 Calma 6 Sudoeste 0 -- -- 97
2018-01-18 08:00:00 2.2 3 Sudoeste 5 Sudoeste 0 -- -- 97
2018-01-18 07:00:00 2.5 3 Sudeste 6 Este 0 -- -- 97
2018-01-18 06:00:00 3 4 Sudeste 6 Sudeste 0 -- -- 97
2018-01-18 05:00:00 3.7 0 Calma 5 Este 0 -- -- 96
2018-01-18 04:00:00 4.1 0 Calma 5 Nordeste 0 -- -- 96
2018-01-18 03:00:00 4.4 2 Nordeste 5 Nordeste 0 -- -- 96
2018-01-18 02:00:00 4.9 0 Calma 4 Sur 0.1 -- -- 96
2018-01-18 01:00:00 5.5 0 Calma 3 Noroeste 0 -- -- 96
2018-01-18 00:00:00 5.8 0 Calma 3 Sudoeste 0 -- -- 96
2018-01-17 23:00:00 6.2 0 Calma 3 Este 0 -- -- 96
2018-01-17 22:00:00 6.7 2 Noroeste 6 Noroeste 0 -- -- 95
2018-01-17 21:00:00 7.2 0 Calma 3 Noroeste 0 -- -- 95
2018-01-17 20:00:00 7.5 2 Sur 6 Sur 0.3 -- -- 95
2018-01-17 19:00:00 7.7 0 Calma 3 Sur 0.3 -- -- 92
2018-01-17 18:00:00 8.3 0 Calma 8 Sur 0 -- -- 89
2018-01-17 17:00:00 8.9 0 Calma 12 Sudoeste 0 -- -- 85
2018-01-17 16:00:00 8.6 4 Sudoeste 8 Sudoeste 1.4 -- -- 89
2018-01-17 15:00:00 9.4 4 Norte 16 Nordeste 0.5 -- -- 79
2018-01-17 14:00:00 10.3 5 Noroeste 13 Norte 0.2 -- -- 70
2018-01-17 13:00:00 9.5 8 Norte 21 Nordeste 0 -- -- 74
2018-01-17 12:00:00 10.3 3 Sudoeste 13 Sudoeste 0 -- -- 64
2018-01-17 11:00:00 9.5 0 Calma 23 Sudoeste 0.2 -- -- 73
2018-01-17 10:00:00 9.2 6 Oeste 25 Oeste 0.6 -- -- 72
2018-01-17 09:00:00 8.9 3 Oeste 18 Oeste 0.3 -- -- 80
2018-01-17 08:00:00 9.5 6 Oeste 24 Noroeste 1.8 -- -- 73
2018-01-17 07:00:00 9.3 4 Noroeste 31 Noroeste 1 -- -- 75
2018-01-17 06:00:00 9.9 12 Noroeste 35 Norte 0.7 -- -- 71
2018-01-17 05:00:00 10.6 8 Noroeste 41 Noroeste 0.5 -- -- 66
2018-01-17 04:00:00 10.9 8 Noroeste 43 Norte 0.5 -- -- 77
2018-01-17 03:00:00 11.1 4 Sudoeste 36 Noroeste 0.5 -- -- 79
2018-01-17 02:00:00 11.7 11 Noroeste 31 Noroeste 1.1 -- -- 79
2018-01-17 01:00:00 9.8 2 Sudoeste 20 Oeste 2.3 -- -- 96
2018-01-17 00:00:00 9.2 0 Calma 4 Noroeste 1.4 -- -- 96
2018-01-16 23:00:00 9.1 0 Calma 4 Noroeste 0.3 -- -- 96
2018-01-16 22:00:00 9.2 0 Calma 4 Noroeste 0.1 -- -- 96
2018-01-16 21:00:00 9.4 0 Calma 4 Sudeste 0 -- -- 96
2018-01-16 20:00:00 9.6 0 Calma 5 Sur 0 -- -- 96
2018-01-16 19:00:00 9.8 0 Calma 4 Sudoeste 0 -- -- 96
2018-01-16 18:00:00 10.5 0 Calma 6 Noroeste 0 -- -- 96
2018-01-16 17:00:00 10.8 0 Calma 4 Sudeste 0 -- -- 96
2018-01-16 16:00:00 10.9 0 Calma 5 Sudeste 0 -- -- 96
2018-01-16 15:00:00 10.5 0 Calma 9 Norte 0 -- -- 96
2018-01-16 14:00:00 10.1 0 Calma 5 Sur 0.1 -- -- 96
2018-01-16 13:00:00 9.6 0 Calma 5 Noroeste 0.3 -- -- 96
2018-01-16 12:00:00 9.1 0 Calma 3 Norte 0.3 -- -- 96
2018-01-16 11:00:00 8.3 0 Calma 4 Noroeste 0.4 -- -- 96
2018-01-16 10:00:00 8 0 Calma 3 Sur 0.4 -- -- 96
2018-01-16 09:00:00 7.8 0 Calma 3 Noroeste 0.3 -- -- 96
2018-01-16 08:00:00 7.8 0 Calma 4 Norte 0.3 -- -- 96
2018-01-16 07:00:00 7.7 0 Calma 3 Sur 0.1 -- -- 95
2018-01-16 06:00:00 7.8 0 Calma 5 Sur 0 -- -- 94
2018-01-16 05:00:00 7.8 0 Calma 6 Nordeste 0 -- -- 93
2018-01-16 04:00:00 8 0 Calma 10 Este 0.1 -- -- 92
2018-01-16 03:00:00 7.8 3 Este 8 Sudeste 0 -- -- 91
2018-01-16 02:00:00 7.8 2 Nordeste 7 Sudeste 0 -- -- 90
2018-01-16 01:00:00 7.5 3 Este 6 Este 0 -- -- 91
2018-01-16 00:00:00 7.5 0 Calma 7 Norte 0 -- -- 88
2018-01-15 23:00:00 7.4 2 Sudeste 13 Noroeste 0.1 -- -- 87
2018-01-15 22:00:00 7.9 9 Noroeste 20 Noroeste 0 -- -- 77
2018-01-15 21:00:00 8.9 7 Noroeste 17 Noroeste 0 -- -- 65
2018-01-15 20:00:00 10 5 Noroeste 17 Noroeste 0 -- -- 56
2018-01-15 19:00:00 9.8 4 Sudoeste 20 Sudoeste 0 -- -- 56
2018-01-15 18:00:00 9.7 0 Calma 9 Norte 0 -- -- 64
2018-01-15 17:00:00 11.1 4 Oeste 25 Oeste 0 -- -- 50
2018-01-15 16:00:00 11.3 5 Noroeste 19 Sudoeste 0 -- -- 50
2018-01-15 15:00:00 11.5 6 Sudoeste 19 Oeste 0 -- -- 48
2018-01-15 14:00:00 11.2 0 Calma 6 Noroeste 0 -- -- 57
2018-01-15 13:00:00 7.8 0 Calma 5 Este 0 -- -- 89
2018-01-15 12:00:00 5.8 0 Calma 4 Sudeste 0 -- -- 96
2018-01-15 11:00:00 5.3 0 Calma 3 Norte 0 -- -- 96
2018-01-15 10:00:00 5 0 Calma 0 Calma 0 -- -- 97
2018-01-15 09:00:00 4.7 0 Calma 3 Sudeste 0 -- -- 97
2018-01-15 08:00:00 4.7 0 Calma 3 Nordeste 0 -- -- 97
2018-01-15 07:00:00 4.6 0 Calma 2 Sudoeste 0 -- -- 97
2018-01-15 06:00:00 4.6 2 Sur 4 Nordeste 0 -- -- 97
2018-01-15 05:00:00 4.7 0 Calma 3 Sur 0.1 -- -- 97
2018-01-15 04:00:00 4.5 0 Calma 3 Nordeste 0 -- -- 96
2018-01-15 03:00:00 4.7 0 Calma 7 Noroeste 0 -- -- 96
2018-01-15 02:00:00 4.6 0 Calma 5 Noroeste 0 -- -- 96
2018-01-15 01:00:00 4.7 0 Calma 3 Noroeste 0.1 -- -- 96
2018-01-15 00:00:00 4.5 0 Calma 4 Sudeste 0.1 -- -- 96
2018-01-14 23:00:00 4.8 0 Calma 7 Noroeste 0 -- -- 95
2018-01-14 22:00:00 5.1 3 Sur 6 Sur 0.9 -- -- 95
2018-01-14 21:00:00 5.2 2 Sur 6 Norte 0.6 -- -- 94
2018-01-14 20:00:00 5.8 0 Calma 5 Sudoeste 2.7 -- -- 95
2018-01-14 19:00:00 6 0 Calma 3 Norte 2.2 -- -- 95
2018-01-14 18:00:00 6.3 2 Noroeste 6 Noroeste 1.4 -- -- 94
2018-01-14 17:00:00 6.6 3 Oeste 11 Noroeste 1.1 -- -- 89
2018-01-14 16:00:00 6.8 5 Noroeste 8 Noroeste 0.8 -- -- 93
2018-01-14 15:00:00 6.6 0 Calma 2 Sur 0.3 -- -- 93
2018-01-14 14:00:00 6.3 0 Calma 4 Norte 0.8 -- -- 93
2018-01-14 13:00:00 5.9 0 Calma 3 Noroeste 2.2 -- -- 92
2018-01-14 12:00:00 6.1 0 Calma 3 Sudoeste 0.3 -- -- 92
2018-01-14 11:00:00 5.5 0 Calma 3 Sudeste 0.4 -- -- 93
2018-01-14 10:00:00 5.1 0 Calma 4 Sur 0.4 -- -- 95
2018-01-14 09:00:00 4.9 0 Calma 6 Sudoeste 0.1 -- -- 93
2018-01-14 08:00:00 4.7 0 Calma 6 Sudoeste 2.6 -- -- 95
2018-01-14 07:00:00 4.7 0 Calma 3 Sudoeste 1 -- -- 95
2018-01-14 06:00:00 4.7 0 Calma 3 Norte 0.1 -- -- 95
2018-01-14 05:00:00 4.7 0 Calma -- -- 0.4 -- -- 95
2018-01-14 04:00:00 4.8 0 Calma 0 Calma 0.2 -- -- 94
2018-01-14 03:00:00 4.9 0 Calma 6 Oeste 0.6 -- -- 92
2018-01-14 02:00:00 5.1 2 Oeste 8 Sudoeste 1.5 -- -- 89
2018-01-14 01:00:00 5.6 0 Calma 13 Noroeste 1.2 -- -- 89
2018-01-14 00:00:00 6.4 4 Noroeste 13 Oeste 0.4 -- -- 80
2018-01-13 23:00:00 7 0 Calma 12 Oeste 0.2 -- -- 75
2018-01-13 22:00:00 7.5 6 Noroeste 13 Noroeste 0.1 -- -- 71
2018-01-13 21:00:00 8.1 0 Calma 12 Norte 0 -- -- 64
2018-01-13 20:00:00 8.1 4 Noroeste 10 Oeste 0 -- -- 62
2018-01-13 19:00:00 10.2 8 Sudoeste 27 Sur 0 -- -- 45
2018-01-13 18:00:00 9.8 7 Oeste 29 Sudoeste 0 -- -- 47
2018-01-13 17:00:00 10.1 7 Oeste 23 Oeste 0 -- -- 47
2018-01-13 16:00:00 10.6 4 Oeste 22 Sur 0 -- -- 45
2018-01-13 15:00:00 11.1 14 Sur 32 Sur 0 -- -- 42
2018-01-13 14:00:00 10.7 6 Sudoeste 30 Sur 0 -- -- 43
2018-01-13 13:00:00 10.6 5 Sur 38 Sudoeste 0 -- -- 43
2018-01-13 12:00:00 10.4 15 Sur 35 Sur 0 -- -- 42
2018-01-13 11:00:00 10 4 Sudoeste 43 Sur 0 -- -- 41
2018-01-13 10:00:00 9.9 7 Sudeste 40 Sudeste 0 -- -- 41
2018-01-13 09:00:00 9 6 Sur 38 Sudeste 0 -- -- 43
2018-01-13 08:00:00 9.4 14 Sur 37 Sur 0 -- -- 41
2018-01-13 07:00:00 9.2 17 Sur 43 Sur 0 -- -- 45
2018-01-13 06:00:00 8.6 9 Sudoeste 28 Sur 0 -- -- 52
2018-01-13 05:00:00 6.9 7 Sudoeste 34 Sur 0 -- -- 71
2018-01-13 04:00:00 1.5 0 Calma 9 Sudeste 0 -- -- 97
2018-01-13 03:00:00 1.8 2 Este 13 Norte 0 -- -- 97
2018-01-13 02:00:00 2.3 0 Calma 11 Sudeste 0 -- -- 97
2018-01-13 01:00:00 2.7 2 Nordeste 7 Este 0 -- -- 97
2018-01-13 00:00:00 3 0 Calma 6 Norte 0 -- -- 97
2018-01-12 23:00:00 3.2 0 Calma 6 Sudeste 0 -- -- 97
2018-01-12 22:00:00 3.1 0 Calma 4 Sudeste 0 -- -- 97
2018-01-12 21:00:00 3.3 0 Calma 3 Sudoeste 0 -- -- 96
2018-01-12 20:00:00 3.5 0 Calma 0 Calma 0 -- -- 95
2018-01-12 19:00:00 4.4 0 Calma 2 Oeste 0 -- -- 93
2018-01-12 18:00:00 6.3 0 Calma 5 Sudoeste 0 -- -- 91
2018-01-12 17:00:00 8.3 0 Calma 3 Sudeste 0 -- -- 86
2018-01-12 16:00:00 9.1 0 Calma 3 Noroeste 0 -- -- 88
2018-01-12 15:00:00 8.6 0 Calma 5 Este 0 -- -- 89
2018-01-12 14:00:00 7.8 0 Calma 6 Noroeste 0 -- -- 93
2018-01-12 13:00:00 6.9 0 Calma 5 Nordeste 0 -- -- 93
2018-01-12 12:00:00 5.8 0 Calma 6 Noroeste 0 -- -- 96
2018-01-12 11:00:00 5.1 0 Calma 3 Sudoeste 0.1 -- -- 97
2018-01-12 10:00:00 4.5 0 Calma 3 Nordeste 0.5 -- -- 97
2018-01-12 09:00:00 4.2 0 Calma 3 Sur 0.9 -- -- 97
2018-01-12 08:00:00 3.9 0 Calma 4 Noroeste 0.3 -- -- 97
2018-01-12 07:00:00 3.9 0 Calma 3 Norte 0 -- -- 97
2018-01-12 06:00:00 3.7 0 Calma 3 Norte 0 -- -- 97
2018-01-12 05:00:00 3.8 0 Calma 8 Oeste 0.7 -- -- 97
2018-01-12 04:00:00 3.7 0 Calma 6 Oeste 0.2 -- -- 97
2018-01-12 03:00:00 3.6 0 Calma 4 Sudeste 0.6 -- -- 97
2018-01-12 02:00:00 3.7 0 Calma 3 Este 0.6 -- -- 97
2018-01-12 01:00:00 3.5 0 Calma 4 Sur 0 -- -- 97
2018-01-12 00:00:00 3.3 0 Calma 3 Sudoeste 0 -- -- 97
2018-01-11 23:00:00 3.4 0 Calma 3 Nordeste 0 -- -- 96
2018-01-11 22:00:00 3.3 0 Calma 0 Calma 0 -- -- 96
2018-01-11 21:00:00 3.3 0 Calma 4 Sudeste 0 -- -- 96
2018-01-11 20:00:00 3.5 0 Calma 6 Sudeste 0.2 -- -- 95
2018-01-11 19:00:00 3.9 0 Calma 8 Este 0.7 -- -- 94
2018-01-11 18:00:00 4.4 6 Nordeste 14 Este 1 -- -- 93
2018-01-11 17:00:00 5 0 Calma 6 Nordeste 0.6 -- -- 93
2018-01-11 16:00:00 4.9 0 Calma 8 Sudeste 0.4 -- -- 92
2018-01-11 15:00:00 4.8 3 Noroeste 12 Noroeste 2.4 -- -- 89
2018-01-11 14:00:00 5.2 0 Calma 8 Sudoeste 1.1 -- -- 91
2018-01-11 13:00:00 5.2 2 Sudeste 7 Noroeste 1.3 -- -- 92
2018-01-11 12:00:00 4.7 0 Calma 6 Nordeste 2.7 -- -- 95
2018-01-11 11:00:00 4.7 2 Norte 12 Noroeste 1.3 -- -- 96
2018-01-11 10:00:00 3.8 0 Calma 6 Sudoeste 0.7 -- -- 98
2018-01-11 09:00:00 3.2 4 Sur 8 Sudoeste 0.6 -- -- 98
2018-01-11 08:00:00 2.7 0 Calma 7 Noroeste 1 -- -- 97
2018-01-11 07:00:00 2.3 2 Noroeste 8 Noroeste 0 -- -- 97
2018-01-11 06:00:00 1.9 2 Este 6 Sudeste 0.2 -- -- 97
2018-01-11 05:00:00 1.4 0 Calma 5 Noroeste 0.1 -- -- 97
2018-01-11 04:00:00 1.2 0 Calma 5 Sur 0 -- -- 97
2018-01-11 03:00:00 1.4 0 Calma 4 Norte 0 -- -- 97
2018-01-11 02:00:00 2 0 Calma 8 Noroeste 0 -- -- 96
2018-01-11 01:00:00 3 2 Sur 9 Este 0 -- -- 96
2018-01-11 00:00:00 3.6 6 Sudeste 10 Este 0 -- -- 96
2018-01-10 23:00:00 4.4 0 Calma 5 Norte 0 -- -- 96
2018-01-10 22:00:00 4.4 0 Calma 5 Norte 0 -- -- 95
2018-01-10 21:00:00 4.9 3 Sur 5 Sur 0.7 -- -- 94
2018-01-10 20:00:00 5.9 0 Calma 19 Noroeste 4.1 -- -- 90
2018-01-10 19:00:00 7.1 9 Noroeste 38 Noroeste 1.2 -- -- 79
2018-01-10 18:00:00 8.6 2 Sur 18 Noroeste 0 -- -- 62
2018-01-10 17:00:00 10.2 4 Noroeste 28 Sudoeste 0 -- -- 52
2018-01-10 16:00:00 10.4 5 Oeste 38 Sudoeste 0 -- -- 52
2018-01-10 15:00:00 9.9 4 Norte 35 Sur 0 -- -- 57
2018-01-10 14:00:00 10.9 5 Noroeste 26 Sur 0 -- -- 51
2018-01-10 13:00:00 11 8 Oeste 29 Sudoeste 0 -- -- 52
2018-01-10 12:00:00 8.3 0 Calma 4 Sudoeste 0 -- -- 68
2018-01-10 11:00:00 5.7 0 Calma 4 Nordeste 0 -- -- 82
2018-01-10 10:00:00 2.4 0 Calma 5 Sur 0 -- -- 95
2018-01-10 09:00:00 1.2 0 Calma 5 Sur 0 -- -- 95
2018-01-10 08:00:00 1.7 0 Calma 3 Sur 0 -- -- 93
2018-01-10 07:00:00 2.4 0 Calma 4 Sur 0 -- -- 90
2018-01-10 06:00:00 3.1 0 Calma 6 Sur 0 -- -- 89
2018-01-10 05:00:00 3.7 0 Calma 8 Oeste 0 -- -- 83
2018-01-10 04:00:00 3.7 2 Sudoeste 10 Sudoeste 0 -- -- 82
2018-01-10 03:00:00 3.9 0 Calma 20 Sudoeste 0 -- -- 78
2018-01-10 02:00:00 5.1 3 Noroeste 13 Noroeste 0 -- -- 73
2018-01-10 01:00:00 4.7 2 Noroeste 10 Sudoeste 0 -- -- 76
2018-01-10 00:00:00 5.7 3 Sudoeste 12 Noroeste 0 -- -- 72
2018-01-09 23:00:00 5.6 3 Noroeste 12 Noroeste 0 -- -- 72
2018-01-09 22:00:00 6.1 4 Noroeste 20 Sudoeste 0 -- -- 72
2018-01-09 21:00:00 5.2 3 Oeste 13 Oeste 0 -- -- 78
2018-01-09 20:00:00 3.9 3 Nordeste 16 Sudeste 0.2 -- -- 85
2018-01-09 19:00:00 4.9 0 Calma 40 Sudoeste 0 -- -- 72
2018-01-09 18:00:00 6.9 23 Sur 46 Sudoeste 0 -- -- 52
2018-01-09 17:00:00 7.8 9 Sudeste 39 Sur 0 -- -- 46
2018-01-09 16:00:00 8.3 23 Sur 50 Sudoeste 0 -- -- 43
2018-01-09 15:00:00 7.4 4 Norte 23 Noroeste 0 -- -- 48
2018-01-09 14:00:00 7.5 3 Nordeste 17 Norte 0 -- -- 48
2018-01-09 13:00:00 6.6 11 Norte 22 Norte 0 -- -- 50
2018-01-09 12:00:00 4.6 0 Calma 19 Sudeste 0 -- -- 73
2018-01-09 11:00:00 0.4 5 Noroeste 13 Noroeste 0 -- -- 96
2018-01-09 10:00:00 -3 0 Calma 7 Noroeste 0 -- -- 96
2018-01-09 09:00:00 -4.2 0 Calma 9 Sur 0 -- -- 96
2018-01-09 08:00:00 -4.5 0 Calma 5 Sur 0 -- -- 96
2018-01-09 07:00:00 -4.3 0 Calma 3 Sudoeste 0 -- -- 97
2018-01-09 06:00:00 -3.8 0 Calma 3 Sudoeste 0 -- -- 97
2018-01-09 05:00:00 -3.7 0 Calma 5 Sudoeste 0 -- -- 97
2018-01-09 04:00:00 -3.1 0 Calma 4 Norte 0 -- -- 97
2018-01-09 03:00:00 -2.7 0 Calma 4 Sur 0 -- -- 97
2018-01-09 02:00:00 -2.4 0 Calma 3 Oeste 0 -- -- 97
2018-01-09 01:00:00 -2.1 0 Calma 4 Sur 0 -- -- 97
2018-01-09 00:00:00 -2 0 Calma 4 Sur 0 -- -- 97
2018-01-08 23:00:00 -2.2 0 Calma 3 Sur 0 -- -- 96
2018-01-08 22:00:00 -1.8 0 Calma 4 Noroeste 0 -- -- 95
2018-01-08 21:00:00 -1.4 0 Calma 3 Este 0 -- -- 95
2018-01-08 20:00:00 -0.6 2 Sur 3 Sudoeste 0 -- -- 93
2018-01-08 19:00:00 0.1 0 Calma 4 Sudoeste 0 -- -- 91
2018-01-08 18:00:00 1.7 0 Calma 5 Sudoeste 0 -- -- 85
2018-01-08 17:00:00 4 4 Sudoeste 7 Sudoeste 0 -- -- 75
2018-01-08 16:00:00 7.4 3 Sur 6 Sudoeste 0 -- -- 67
2018-01-08 15:00:00 8 0 Calma 9 Sur 0 -- -- 68
2018-01-08 14:00:00 7.3 0 Calma 4 Sur 0 -- -- 73
2018-01-08 13:00:00 6.2 0 Calma 6 Sudoeste 0 -- -- 82
2018-01-08 12:00:00 2.9 2 Sudeste 4 Sudeste 0 -- -- 95
2018-01-08 11:00:00 1.2 0 Calma 3 Sudeste 0 -- -- 98
2018-01-08 10:00:00 0 0 Calma 4 Sur 0 -- -- 98
2018-01-08 09:00:00 -0.1 0 Calma 4 Sur 0 -- -- 98
2018-01-08 08:00:00 -0.1 0 Calma 4 Sur 0 -- -- 98
2018-01-08 07:00:00 0 0 Calma 3 Sudeste 0 -- -- 98
2018-01-08 06:00:00 0.1 0 Calma 3 Sudoeste 0 -- -- 98
2018-01-08 05:00:00 0.2 0 Calma 2 Norte 0.1 -- -- 98
2018-01-08 04:00:00 0.2 0 Calma 4 Norte 0 -- -- 98
2018-01-08 03:00:00 0.2 0 Calma 2 Sur 0 -- -- 98
2018-01-08 02:00:00 0.3 0 Calma 3 Sur 0 -- -- 98
2018-01-08 01:00:00 0.4 0 Calma 3 Norte 0 -- -- 98
2018-01-08 00:00:00 0.4 0 Calma 3 Sudoeste 0 -- -- 97
2018-01-07 23:00:00 0.5 0 Calma 4 Sur 0 -- -- 97
2018-01-07 22:00:00 0.8 0 Calma 5 Norte 0 -- -- 97
2018-01-07 21:00:00 0.6 0 Calma 3 Nordeste 0 -- -- 97
2018-01-07 20:00:00 0.8 0 Calma 5 Sudeste 0 -- -- 97
2018-01-07 19:00:00 1.1 0 Calma 6 Sur 0 -- -- 97
2018-01-07 18:00:00 1.1 2 Sur 7 Sudoeste 0 -- -- 96
2018-01-07 17:00:00 1.8 0 Calma 4 Sur 0 -- -- 93
2018-01-07 16:00:00 2.5 0 Calma 4 Sudeste 0 -- -- 93
2018-01-07 15:00:00 2.8 0 Calma 5 Sudoeste 0 -- -- 93
2018-01-07 14:00:00 2.4 0 Calma 6 Este 0 -- -- 92
2018-01-07 13:00:00 2.8 0 Calma 4 Sudeste 0 -- -- 92
2018-01-07 12:00:00 2.1 0 Calma 4 Este 0 -- -- 95
2018-01-07 11:00:00 1.2 0 Calma 7 Sudoeste 0.3 -- -- 97
2018-01-07 10:00:00 0.9 2 Noroeste 6 Norte 0 -- -- 97
2018-01-07 09:00:00 0.5 0 Calma 3 Sudeste 0.1 -- -- 97
2018-01-07 08:00:00 0.4 2 Norte 4 Sur 0.1 -- -- 97
2018-01-07 07:00:00 0.5 0 Calma 5 Norte 0.2 -- -- 97
2018-01-07 06:00:00 0.4 0 Calma 4 Noroeste 0.7 -- -- 97
2018-01-07 05:00:00 0.4 0 Calma 4 Este 0 -- -- 97
2018-01-07 04:00:00 0.4 0 Calma 2 Oeste 0.2 -- -- 97
2018-01-07 03:00:00 0.3 0 Calma 0 Calma 1.8 -- -- 97
2018-01-07 02:00:00 0.4 0 Calma 0 Calma 1.3 -- -- 97
2018-01-07 01:00:00 0.4 0 Calma -- -- 1.4 -- -- 97
2018-01-07 00:00:00 0.2 0 Calma -- -- 0.8 -- -- 97
2018-01-06 23:00:00 0.3 0 Calma -- -- 1.2 -- -- 97
2018-01-06 22:00:00 0.3 0 Calma -- -- 2.2 -- -- 96
2018-01-06 21:00:00 0.3 0 Calma -- -- 1.4 -- -- 96
2018-01-06 20:00:00 0.2 0 Calma -- -- 2.4 -- -- 96
2018-01-06 19:00:00 0.3 0 Calma -- -- 2.6 -- -- 96
2018-01-06 18:00:00 0.4 0 Calma -- -- 3.7 -- -- 95
2018-01-06 17:00:00 0.5 0 Calma -- -- 2.6 -- -- 95
2018-01-06 16:00:00 0.7 0 Calma 0 Calma 3.3 -- -- 95
2018-01-06 15:00:00 0.6 0 Calma 5 Oeste 3 -- -- 95
2018-01-06 14:00:00 0.5 0 Calma 0 Calma 4.3 -- -- 95
2018-01-06 13:00:00 0.5 0 Calma 0 Calma 4.8 -- -- 95
2018-01-06 12:00:00 0.6 0 Calma -- -- 4.1 -- -- 95
2018-01-06 11:00:00 0.5 0 Calma -- -- 3.1 -- -- 94
2018-01-06 10:00:00 0.7 0 Calma 2 Sudoeste 2 -- -- 94
2018-01-06 09:00:00 1.4 0 Calma 4 Sudoeste 2.1 -- -- 94
2018-01-06 08:00:00 1.5 0 Calma 4 Este 1.9 -- -- 92
2018-01-06 07:00:00 2.2 0 Calma 10 Sudoeste 2.2 -- -- 92
2018-01-06 06:00:00 2.6 6 Sudoeste 12 Sudoeste 2.8 -- -- 89
2018-01-06 05:00:00 4.7 0 Calma 9 Este 3.1 -- -- 86
2018-01-06 04:00:00 5.6 0 Calma 4 Sur 2.7 -- -- 92
2018-01-06 03:00:00 6 4 Noroeste 12 Noroeste 2.5 -- -- 89
2018-01-06 02:00:00 7 2 Noroeste 9 Norte 3.4 -- -- 95
2018-01-06 01:00:00 7.7 0 Calma 4 Norte 3.3 -- -- 95
2018-01-06 00:00:00 7.8 3 Sudoeste 4 Sur 2.9 -- -- 95
2018-01-05 23:00:00 8.3 0 Calma 3 Noroeste 1.5 -- -- 95
2018-01-05 22:00:00 8.4 0 Calma 3 Oeste 1.4 -- -- 95
2018-01-05 21:00:00 8.5 0 Calma 2 Noroeste 1.2 -- -- 95
2018-01-05 20:00:00 8.6 0 Calma 0 Calma 0.8 -- -- 94
2018-01-05 19:00:00 8.8 0 Calma 5 Sur 0.6 -- -- 94
2018-01-05 18:00:00 8.9 3 Sur 10 Sur 1.4 -- -- 92
2018-01-05 17:00:00 10.1 3 Sudoeste 16 Norte 0.5 -- -- 83
2018-01-05 16:00:00 11.5 3 Oeste 8 Oeste 0 -- -- 82
2018-01-05 15:00:00 11.9 2 Este 7 Este 0 -- -- 77
2018-01-05 14:00:00 12 2 Este 10 Sudeste 0 -- -- 77
2018-01-05 13:00:00 12.4 3 Sur 21 Noroeste 0 -- -- 68
2018-01-05 12:00:00 13.1 7 Noroeste 18 Noroeste 0.2 -- -- 56
2018-01-05 11:00:00 14.7 8 Sudoeste 30 Sur 0 -- -- 48
2018-01-05 10:00:00 14.5 6 Sudoeste 30 Sur 0 -- -- 48
2018-01-05 09:00:00 13.6 4 Oeste 17 Sudoeste 0 -- -- 51
2018-01-05 08:00:00 14 3 Sur 41 Sudoeste 0.1 -- -- 48
2018-01-05 07:00:00 13.6 7 Sur 34 Sur 0 -- -- 50
2018-01-05 06:00:00 13.9 7 Sudoeste 22 Sudoeste 0 -- -- 52
2018-01-05 05:00:00 13.8 6 Oeste 39 Sudoeste 0 -- -- 53
2018-01-05 04:00:00 13 4 Oeste 30 Oeste 0 -- -- 55
2018-01-05 03:00:00 14.4 6 Sudoeste 39 Sur 0 -- -- 52
2018-01-05 02:00:00 10.9 0 Calma 15 Nordeste 0 -- -- 73
2018-01-05 01:00:00 9.9 3 Sudoeste 17 Sudeste 0 -- -- 82
2018-01-05 00:00:00 10.5 0 Calma 5 Sur 0 -- -- 82
2018-01-04 23:00:00 11.6 0 Calma 5 Sudeste 0 -- -- 78
2018-01-04 22:00:00 11.4 0 Calma 8 Sudoeste 0 -- -- 79
2018-01-04 21:00:00 11.2 3 Oeste 13 Sur 0 -- -- 76
2018-01-04 20:00:00 9.1 0 Calma 6 Noroeste 0 -- -- 89
2018-01-04 19:00:00 11 3 Noroeste 13 Oeste 0 -- -- 80
2018-01-04 18:00:00 13.3 3 Oeste 14 Sudoeste 0 -- -- 73
2018-01-04 17:00:00 15.7 0 Calma 6 Sudoeste 0 -- -- 70
2018-01-04 16:00:00 17 5 Sudoeste 17 Sudoeste 0 -- -- 52
2018-01-04 15:00:00 18.9 6 Sudoeste 19 Oeste 0 -- -- 46
2018-01-04 14:00:00 17.3 3 Oeste 13 Noroeste 0 -- -- 50
2018-01-04 13:00:00 16.5 0 Calma 7 Este 0 -- -- 70
2018-01-04 12:00:00 13.4 0 Calma 5 Norte 0 -- -- 92
2018-01-04 11:00:00 12.2 0 Calma 4 Noroeste 0 -- -- 96
2018-01-04 10:00:00 11.4 0 Calma 4 Noroeste 0 -- -- 96
2018-01-04 09:00:00 11.3 3 Sur 5 Sur 0 -- -- 96
2018-01-04 08:00:00 11 0 Calma 3 Sur 0 -- -- 96
2018-01-04 07:00:00 11.5 0 Calma 3 Sur 0 -- -- 96
2018-01-04 06:00:00 11.8 0 Calma 4 Sur 0 -- -- 96
2018-01-04 05:00:00 12.1 2 Norte 8 Noroeste 0 -- -- 96
2018-01-04 04:00:00 12.3 0 Calma 5 Noroeste 0 -- -- 96
2018-01-04 03:00:00 12.5 0 Calma 5 Noroeste 0 -- -- 95
2018-01-04 02:00:00 12.9 0 Calma 6 Este 0 -- -- 95
2018-01-04 01:00:00 13.2 0 Calma 8 Sur 0 -- -- 94
2018-01-04 00:00:00 13.5 2 Este 11 Este 0 -- -- 94
2018-01-03 23:00:00 12.9 0 Calma 13 Noroeste 0 -- -- 96
2018-01-03 22:00:00 12.6 0 Calma 6 Sur 0 -- -- 96
2018-01-03 21:00:00 13.1 0 Calma 4 Sudeste 0 -- -- 96
2018-01-03 20:00:00 13.2 2 Noroeste 7 Noroeste 0.3 -- -- 96
2018-01-03 19:00:00 13.4 2 Noroeste 6 Norte 0.1 -- -- 95
2018-01-03 18:00:00 13.9 0 Calma 4 Este 0.4 -- -- 94
2018-01-03 17:00:00 14.4 0 Calma 4 Sudeste 0.7 -- -- 93
2018-01-03 16:00:00 14.8 0 Calma 6 Noroeste 2 -- -- 92
2018-01-03 15:00:00 15.6 2 Sudoeste 12 Norte 1.5 -- -- 85
2018-01-03 14:00:00 17.8 3 Norte 15 Norte 0 -- -- 61
2018-01-03 13:00:00 18.4 6 Noroeste 16 Noroeste 0 -- -- 57
2018-01-03 12:00:00 16.3 2 Sudeste 9 Este 0 -- -- 85
2018-01-03 11:00:00 12.8 3 Sudoeste 6 Sudoeste 0 -- -- 96
2018-01-03 10:00:00 11.2 0 Calma 8 Noroeste 0 -- -- 96
2018-01-03 09:00:00 10.9 0 Calma 4 Norte 0.1 -- -- 96
2018-01-03 08:00:00 10.5 0 Calma 6 Sudoeste 0.1 -- -- 96
2018-01-03 07:00:00 10.1 0 Calma 4 Norte 0.1 -- -- 96
2018-01-03 06:00:00 10 0 Calma 6 Sur 0 -- -- 96
2018-01-03 05:00:00 9.8 0 Calma 4 Norte 0 -- -- 96
2018-01-03 04:00:00 9.7 0 Calma 4 Norte 0 -- -- 96
2018-01-03 03:00:00 9.9 0 Calma 3 Noroeste 0 -- -- 96
2018-01-03 02:00:00 10.2 0 Calma 3 Sudeste 0 -- -- 96
2018-01-03 01:00:00 10.4 0 Calma 3 Sudeste 0 -- -- 96
2018-01-03 00:00:00 10.4 0 Calma 4 Sur 0 -- -- 96
2018-01-02 23:00:00 10.8 0 Calma 3 Sur 0 -- -- 96
2018-01-02 22:00:00 11.1 0 Calma 5 Norte 0 -- -- 96
2018-01-02 21:00:00 11.1 0 Calma 7 Norte 0.1 -- -- 96
2018-01-02 20:00:00 11.4 2 Sudoeste 4 Sudoeste 0 -- -- 96
2018-01-02 19:00:00 11.6 2 Sudoeste 6 Norte 0 -- -- 96
2018-01-02 18:00:00 11.7 0 Calma 6 Noroeste 0.2 -- -- 96
2018-01-02 17:00:00 12.1 0 Calma 4 Sudoeste 0 -- -- 96
2018-01-02 16:00:00 12.2 0 Calma 4 Nordeste 0 -- -- 96
2018-01-02 15:00:00 11.9 0 Calma 5 Nordeste 0.4 -- -- 96
2018-01-02 14:00:00 10.8 0 Calma 3 Sudeste 0.3 -- -- 96
2018-01-02 13:00:00 10 0 Calma 5 Noroeste 0.3 -- -- 96
2018-01-02 12:00:00 9.3 0 Calma 4 Norte 1.4 -- -- 96
2018-01-02 11:00:00 8.6 0 Calma 2 Sudoeste 0.8 -- -- 96
2018-01-02 10:00:00 8.2 0 Calma 4 Sudeste 0.8 -- -- 96
2018-01-02 09:00:00 8 0 Calma 4 Sur 0.1 -- -- 96
2018-01-02 08:00:00 7.7 0 Calma 4 Noroeste 0.2 -- -- 96
2018-01-02 07:00:00 7.7 0 Calma 6 Sudeste 0 -- -- 96
2018-01-02 06:00:00 7.7 0 Calma 5 Sudoeste 0.1 -- -- 96
2018-01-02 05:00:00 7.7 0 Calma 7 Norte 0.8 -- -- 96
2018-01-02 04:00:00 7.6 0 Calma 4 Norte 1.1 -- -- 95
2018-01-02 03:00:00 7.8 0 Calma 3 Sudeste 0.1 -- -- 92
2018-01-02 02:00:00 8.4 0 Calma 13 Sudoeste 0 -- -- 89
2018-01-02 01:00:00 8.6 2 Sur 5 Sudeste 0 -- -- 88
2018-01-02 00:00:00 9.3 0 Calma 15 Oeste 0 -- -- 82
2018-01-01 23:00:00 10.4 3 Oeste 23 Noroeste 0 -- -- 71
2018-01-01 22:00:00 11.3 6 Oeste 23 Noroeste 0 -- -- 64
2018-01-01 21:00:00 11.8 10 Noroeste 36 Sudoeste 0.8 -- -- 63
2018-01-01 20:00:00 11.8 4 Norte 49 Noroeste 0.8 -- -- 73
2018-01-01 19:00:00 11.9 13 Noroeste 42 Noroeste 1.4 -- -- 75
2018-01-01 18:00:00 9.7 5 Sur 14 Sudoeste 2.7 -- -- 89
2018-01-01 17:00:00 9.5 2 Noroeste 37 Sudoeste 3.5 -- -- 89
2018-01-01 16:00:00 11.2 12 Sudoeste 51 Sudoeste 1.4 -- -- 64
2018-01-01 15:00:00 13.1 12 Sudoeste 40 Sudoeste 0 -- -- 45
2018-01-01 14:00:00 13.1 14 Sudoeste 50 Sur 0 -- -- 45
2018-01-01 13:00:00 12.8 7 Oeste 35 Sudoeste 0 -- -- 45
2018-01-01 12:00:00 12.2 11 Sudoeste 42 Oeste 0 -- -- 44
2018-01-01 11:00:00 10.9 17 Sudoeste 44 Sudoeste 0 -- -- 45
2018-01-01 10:00:00 8.6 5 Oeste 22 Oeste 0 -- -- 60
2018-01-01 09:00:00 3.1 3 Sur 12 Este 0 -- -- 95
2018-01-01 08:00:00 1.6 0 Calma 4 Sudeste 0 -- -- 96
2018-01-01 07:00:00 1.8 0 Calma 5 Sudeste 0 -- -- 95
2018-01-01 06:00:00 2.7 0 Calma 4 Oeste 0 -- -- 93
2018-01-01 05:00:00 4.1 0 Calma 8 Noroeste 0 -- -- 89
2018-01-01 04:00:00 6.2 0 Calma 18 Sudoeste 0 -- -- 79
2018-01-01 03:00:00 6.3 0 Calma 36 Sudeste 0 -- -- 86
2018-01-01 02:00:00 4.3 2 Noroeste 6 Norte 0 -- -- 96
2018-01-01 01:00:00 4.5 0 Calma 6 Sur 0.1 -- -- 95
2018-01-01 00:00:00 5.8 0 Calma 8 Sudeste 0 -- -- 93
2017-12-31 23:00:00 7 3 Nordeste 26 Este 0.1 -- -- 93
2017-12-31 22:00:00 7.7 2 Oeste 15 Sudoeste 0.4 -- -- 89
2017-12-31 21:00:00 7 0 Calma 6 Sur 0.1 -- -- 94
2017-12-31 20:00:00 7.4 0 Calma 10 Sudeste 1.5 -- -- 94
2017-12-31 19:00:00 8 0 Calma 14 Sudoeste 1.5 -- -- 90
2017-12-31 18:00:00 8.7 5 Sudoeste 28 Oeste 4.2 -- -- 79
2017-12-31 17:00:00 10.6 4 Oeste 38 Noroeste 2 -- -- 83
2017-12-31 16:00:00 15.5 8 Sudoeste 34 Sudoeste 0 -- -- 45
2017-12-31 15:00:00 15.9 22 Sudoeste 42 Sudoeste 0 -- -- 44
2017-12-31 14:00:00 14.9 7 Sudoeste 32 Sudeste 0 -- -- 47
2017-12-31 13:00:00 13.6 12 Sudeste 36 Sudeste 0 -- -- 50
2017-12-31 12:00:00 13.3 13 Sur 43 Sudoeste 0 -- -- 52
2017-12-31 11:00:00 13.4 17 Sur 43 Sur 0 -- -- 52
2017-12-31 10:00:00 11.9 8 Nordeste 18 Norte 0 -- -- 61
2017-12-31 09:00:00 9.9 5 Noroeste 29 Sur 0 -- -- 66
2017-12-31 08:00:00 12.4 10 Sur 42 Sur 0.1 -- -- 57
2017-12-31 07:00:00 9.6 3 Sur 19 Sudeste 0 -- -- 77
2017-12-31 06:00:00 6.3 0 Calma 10 Sudeste 0 -- -- 94
2017-12-31 05:00:00 5.7 0 Calma 5 Sudoeste 0 -- -- 96
2017-12-31 04:00:00 5.7 2 Noroeste 7 Sudeste 0 -- -- 96
2017-12-31 03:00:00 5.2 0 Calma 9 Noroeste 0 -- -- 97
2017-12-31 02:00:00 3.8 2 Noroeste 9 Noroeste 0 -- -- 97
2017-12-31 01:00:00 3.2 2 Sur 7 Sur 0 -- -- 97